Burns Pinion Ridge Reserve, California Weather observations

Data are for 10 minute period ending at time listed.
 Day   Time   Solar   Ave.   Ave.  Ave.  Vector  Max.   Baro.   Total    
  of    of     Rad.   Air    Rel.  Wind   Wind   Wind  Press.  Precip.   
Year   Day            Temp.  Hum.  Speed  Dir.   Gust                    
2017   (PST)  Kw/m2    F      %     mph   deg.    mph    mb.     in.     
-------------------------------------------------------------------------
  54    8:10   0.32   41.1    43    0.8    53     2.4   873.0    0.00 
  54    8:20   0.36   42.7    38    1.1    43     3.7   873.0    0.00 
  54    8:30   0.40   41.9    39    2.3   221     4.9   873.0    0.00 
  54    8:40   0.43   43.5    38    2.3   169     5.3   873.1    0.00 
  54    8:50   0.46   42.9    40    1.9   159     5.9   873.1    0.00 
  54    9:00   0.49   42.6    39    2.7   144     5.5   873.2    0.00 
  54    9:10   0.52   41.8    41    4.1    94     8.1   873.2    0.00 
  54    9:20   0.55   43.0    39    1.9    22     4.2   873.2    0.00 
  54    9:30   0.58   43.4    38    1.8   303     4.0   873.1    0.00 
  54    9:40   0.60   43.8    36    2.7    60     7.1   873.1    0.00 
  54    9:50   0.63   43.4    31    3.6    86    10.4   873.0    0.00 
  54   10:00   0.65   43.8    31    2.4    25     7.1   872.9    0.00 
  54   10:10   0.67   44.3    30    4.6   338    11.5   873.0    0.00 
  54   10:20   0.69   43.8    28    2.8    23     8.8   873.0    0.00 
  54   10:30   0.71   44.5    28    6.7   360    13.7   872.9    0.00 
  54   10:40   0.73   44.6    27    4.4     9    12.6   872.8    0.00 
  54   10:50   0.74   44.9    29    4.9   282    12.3   872.8    0.00 
  54   11:00   0.76   46.0    27    5.1   176    11.6   872.8    0.00 
  54   11:10   0.77   46.0    27    6.0   197    12.1   872.9    0.00 
  54   11:20   0.78   46.3    26    5.7   173    11.8   872.8    0.00 
  54   11:30   0.78   46.3    26    6.1   174    13.2   872.7    0.00 
  54   11:40   0.79   46.2    25    4.2   163     9.9   872.6    0.00 
  54   11:50   0.79   46.2    25    5.2   168    11.8   872.5    0.00 
  54   12:00   0.77   46.6    25    3.9   170     8.8   872.4    0.00 
  54   12:10   0.79   46.1    26    4.3   230     9.2   872.3    0.00 
  54   12:20   0.79   47.4    26    3.9   193     8.5   872.2    0.00 
  54   12:30   0.79   47.1    26    3.4   179     8.3   872.0    0.00 
  54   12:40   0.78   47.3    27    4.7   156    11.1   871.9    0.00 
  54   12:50   0.77   46.5    28    6.3   167    12.5   871.9    0.00 
  54   13:00   0.76   47.0    28    5.6   163    12.4   871.9    0.00 
  54   13:10   0.75   47.4    27    4.9   171     9.9   871.8    0.00 
  54   13:20   0.74   47.7    27    7.5   154    15.2   871.7    0.00 
  54   13:30   0.72   47.0    28    6.7   146    12.7   871.6    0.00 
  54   13:40   0.71   47.7    28    5.8   164    12.8   871.5    0.00 
  54   13:50   0.69   47.8    28    7.5   133    11.9   871.5    0.00 
  54   14:00   0.67   48.0    30    6.8   152    13.7   871.4    0.00 
  54   14:10   0.64   48.3    28    5.4   197    11.0   871.4    0.00 
  54   14:20   0.62   48.2    28    6.3   181    13.3   871.2    0.00 
  54   14:30   0.59   48.4    34    5.2   212    12.9   871.3    0.00 
  54   14:40   0.57   48.4    30    5.1   167    13.4   871.2    0.00 
  54   14:50   0.54   47.7    31    7.8   137    14.0   871.3    0.00 
  54   15:00   0.52   47.4    31    7.0   146    11.2   871.4    0.00 
  54   15:10   0.49   47.4    31    6.9   155    14.5   871.5    0.00 
  54   15:20   0.46   48.8    30    3.5   181     9.3   871.4    0.00 
  54   15:30   0.42   48.5    28    5.2   147     9.5   871.5    0.00 
  54   15:40   0.39   47.3    30    5.5   143     9.3   871.4    0.00 
  54   15:50   0.35   47.2    31    5.6   176    11.0   871.5    0.00 
  54   16:00   0.32   48.3    30    5.2   157    10.5   871.5    0.00 
  54   16:10   0.28   48.1    30    4.8   155     9.4   871.6    0.00 
  54   16:20   0.25   48.4    29    5.4   163    10.1   871.7    0.00 
  54   16:30   0.21   48.6    29    3.9   174     8.3   871.8    0.00 
  54   16:40   0.18   47.0    30    7.4   141    11.8   871.8    0.00 
  54   16:50   0.14   46.2    32    6.1   162    11.7   871.8    0.00 
  54   17:00   0.11   46.3    34    5.7   168    10.2   871.9    0.00 
  54   17:10   0.05   45.1    37    4.3   148     8.9   872.0    0.00 
  54   17:20   0.02   42.8    40    4.4   189     9.1   872.1    0.00 
  54   17:30   0.01   41.8    40    4.0   218     9.1   872.3    0.00 
  54   17:40   0.01   41.2    41    3.1   204     7.2   872.3    0.00 
  54   17:50   0.00   40.6    41    2.3   213     5.3   872.4    0.00 
  54   18:00   0.00   40.3    42    3.1   242     6.9   872.5    0.00 
  54   18:10   0.00   39.2    42    4.8   310     8.0   872.6    0.00 
  54   18:20   0.00   38.0    44    4.7   284     7.0   872.6    0.00 
  54   18:30   0.00   37.0    46    4.2   320     9.4   872.6    0.00 
  54   18:40   0.00   36.2    47    3.5   312     5.6   872.7    0.00 
  54   18:50   0.00   35.8    49    1.9   273     4.3   872.7    0.00 
  54   19:00   0.00   35.1    51    2.0   219     3.9   872.7    0.00 
  54   19:10   0.00   35.0    51    2.4   227     4.2   872.7    0.00 
  54   19:20   0.00   34.6    53    1.9   193     4.8   872.9    0.00 
  54   19:30   0.00   33.2    58    0.4   179     1.9   872.9    0.00 
  54   19:40   0.00   33.0    59    0.9   204     2.0   872.9    0.00 
  54   19:50   0.00   32.3    59    0.4    57     1.8   872.9    0.00 
  54   20:00   0.00   32.9    56    2.0    92     5.6   873.0    0.00 
  54   20:10   0.00   34.0    53    0.9   317     3.5   873.1    0.00 
  54   20:20   0.00   33.2    55    1.0    49     2.6   873.3    0.00 
  54   20:30   0.00   32.4    57    0.5   263     2.3   873.3    0.00 
  54   20:40   0.00   32.3    58    1.7   333     2.6   873.4    0.00 
  54   20:50   0.00   31.4    60    2.0   344     3.7   873.4    0.00 
  54   21:00   0.00   31.0    60    2.3     8     4.5   873.4    0.00 
  54   21:10   0.00   31.7    58    2.6    40     4.8   873.5    0.00 
  54   21:20   0.00   32.2    57    2.3    51     4.8   873.6    0.00 
  54   21:30   0.00   31.9    58    3.2    60     5.8   873.7    0.00 
  54   21:40   0.00   31.5    59    2.9    41     5.0   873.8    0.00 
  54   21:50   0.00   31.1    60    2.6    52     4.0   873.8    0.00 
  54   22:00   0.00   30.9    61    3.1    59     5.3   873.8    0.00 
  54   22:10   0.00   31.2    60    2.8    70     4.7   873.8    0.00 
  54   22:20   0.00   31.2    60    3.2    72     6.0   873.7    0.00 
  54   22:30   0.00   31.8    59    2.7   100     5.1   873.6    0.00 
  54   22:40   0.00   31.7    59    3.4    70     6.1   873.6    0.00 
  54   22:50   0.00   30.6    63    3.5    54     6.5   873.8    0.00 
  54   23:00   0.00   30.4    64    3.4    52     6.1   873.9    0.00 
  54   23:10   0.00   30.2    64    3.7    25     6.7   874.1    0.00 
  54   23:20   0.00   29.8    65    2.7    10     6.1   874.2    0.00 
  54   23:30   0.00   29.4    66    2.9    16     5.9   874.2    0.00 
  54   23:40   0.00   29.2    67    3.2    37     5.8   874.1    0.00 
  54   23:50   0.00   28.8    68    1.8    45     3.9   874.2    0.00 
  55    0:00   0.00   28.1    70    1.4    37     3.0   874.2    0.00 
  55    0:10   0.00   27.8    70    1.8    38     4.2   874.3    0.00 
  55    0:20   0.00   27.8    71    1.7   360     3.2   874.3    0.00 
  55    0:30   0.00   27.9    71    2.8    31     6.4   874.3    0.00 
  55    0:40   0.00   28.9    68    2.1    57     4.2   874.3    0.00 
  55    0:50   0.00   27.6    72    1.7    69     2.7   874.3    0.00 
  55    1:00   0.00   27.0    73    2.2    33     4.7   874.3    0.00 
  55    1:10   0.00   27.1    73    3.3    10     5.9   874.3    0.00 
  55    1:20   0.00   28.0    70    4.2     0     7.4   874.4    0.00 
  55    1:30   0.00   28.1    70    3.3   357     6.6   874.5    0.00 
  55    1:40   0.00   27.6    71    2.5    11     5.3   874.5    0.00 
  55    1:50   0.00   28.1    69    2.6    46     4.0   874.5    0.00 
  55    2:00   0.00   28.4    69    3.1    57     4.2   874.4    0.00 
  55    2:10   0.00   28.1    69    2.7    27     4.4   874.3    0.00 
  55    2:20   0.00   28.3    69    3.4    20     6.4   874.5    0.00 
  55    2:30   0.00   28.5    68    2.7    81     4.5   874.6    0.00 
  55    2:40   0.00   28.8    66    3.2    85     5.8   874.7    0.00 
  55    2:50   0.00   28.3    67    3.2    58     5.7   874.7    0.00 
  55    3:00   0.00   27.8    68    3.7    64     6.3   874.6    0.00 
  55    3:10   0.00   27.6    68    3.5    63     5.7   874.5    0.00 
  55    3:20   0.00   27.0    69    3.0    62     4.8   874.4    0.00 
  55    3:30   0.00   26.6    70    2.6    66     5.0   874.4    0.00 
  55    3:40   0.00   26.5    69    2.9    50     5.6   874.5    0.00 
  55    3:50   0.00   26.6    69    3.0    61     6.7   874.5    0.00 
  55    4:00   0.00   26.5    68    3.7    53     7.0   874.5    0.00 
  55    4:10   0.00   26.7    68    2.5    84     4.3   874.5    0.00 
  55    4:20   0.00   27.0    68    3.2   102     6.1   874.6    0.00 
  55    4:30   0.00   26.8    68    4.5   110     9.0   874.8    0.00 
  55    4:40   0.00   26.9    67    5.6   112    10.4   874.9    0.00 
  55    4:50   0.00   27.1    65    4.4   105     7.2   875.0    0.00 
  55    5:00   0.00   27.1    65    5.0   109     7.7   875.1    0.00 
  55    5:10   0.00   26.9    66    4.0    56     7.2   875.1    0.00 
  55    5:20   0.00   25.7    69    3.3    61     6.1   875.3    0.00 
  55    5:30   0.00   25.1    71    3.8    55     5.8   875.3    0.00 
  55    5:40   0.00   25.1    71    3.7    64     6.3   875.3    0.00 
  55    5:50   0.00   25.6    69    2.3    80     6.2   875.5    0.00 
  55    6:00   0.00   26.0    67    2.9    76     5.0   875.6    0.00 
  55    6:10   0.00   25.9    68    3.1    78     6.3   875.6    0.00 
  55    6:20   0.00   26.2    68    2.9    76     6.1   875.6    0.00 
  55    6:30   0.01   25.8    70    3.2    63     5.3   875.6    0.00 
  55    6:40   0.01   26.1    69    3.1    82     4.7   875.9    0.00 
  55    6:50   0.02   26.2    70    3.0    69     4.7   876.0    0.00 
  55    7:00   0.03   26.7    67    2.6    64     4.7   876.2    0.00 
  55    7:10   0.04   26.9    67    1.4    28     2.9   876.4    0.00 
  55    7:20   0.12   29.8    61    2.2    33     5.0   876.5    0.00 
  55    7:30   0.17   32.1    54    6.2    11     8.8   876.7    0.00 
  55    7:40   0.18   33.7    51    3.4    33     7.0   876.8    0.00 
  55    7:50   0.23   34.0    51    2.4    54     5.6   877.1    0.00 
  55    8:00   0.28   35.8    48    3.1    14     7.2   877.3    0.00 

Return to Burns Pinion Ridge Reserve graphs page.


Western Regional Climate Center,wrcc@dri.edu